createdAt,value
2022-12-31T00:00:22.771Z,9.75
2022-12-31T00:02:50.137Z,10.07
2022-12-31T00:05:17.617Z,8.98
2022-12-31T00:07:44.924Z,9.52
2022-12-31T00:10:12.166Z,9.35
2022-12-31T00:12:39.501Z,9.52
2022-12-31T00:15:07.537Z,10.60
2022-12-31T00:17:35.230Z,10.25
2022-12-31T00:20:02.728Z,9.70
2022-12-31T00:22:29.986Z,11.25
2022-12-31T00:24:57.396Z,10.60
2022-12-31T00:27:24.664Z,11.15
2022-12-31T00:29:52.005Z,10.27
2022-12-31T00:32:19.669Z,10.02
2022-12-31T00:34:46.950Z,11.05
2022-12-31T00:37:14.239Z,11.07
2022-12-31T00:39:41.561Z,10.73
2022-12-31T00:42:08.822Z,10.95
2022-12-31T00:44:36.061Z,10.88
2022-12-31T00:47:03.444Z,11.52
2022-12-31T00:49:30.737Z,10.98
2022-12-31T00:51:58.054Z,11.88
2022-12-31T00:54:25.423Z,12.45
2022-12-31T00:56:56.098Z,12.02
2022-12-31T00:59:23.398Z,11.30
2022-12-31T01:01:51.306Z,11.70
2022-12-31T01:04:21.020Z,11.30
2022-12-31T01:06:48.362Z,11.32
2022-12-31T01:09:17.075Z,11.88
2022-12-31T01:11:44.734Z,11.88
2022-12-31T01:14:15.366Z,12.15
2022-12-31T01:16:51.350Z,11.82
2022-12-31T01:19:27.801Z,12.40
2022-12-31T01:21:56.532Z,12.43
2022-12-31T01:24:24.147Z,12.70
2022-12-31T01:26:51.741Z,12.90
2022-12-31T01:29:19.053Z,12.27
2022-12-31T01:31:46.436Z,12.60
2022-12-31T01:34:13.736Z,12.32
2022-12-31T01:36:40.936Z,12.73
2022-12-31T01:39:09.783Z,13.02
2022-12-31T01:41:42.718Z,13.27
2022-12-31T01:44:12.875Z,13.68
2022-12-31T01:46:46.178Z,12.30
2022-12-31T01:49:42.781Z,12.15
2022-12-31T01:52:15.565Z,13.60
2022-12-31T01:54:47.169Z,11.52
2022-12-31T01:57:15.760Z,12.80
2022-12-31T01:59:45.250Z,12.35
2022-12-31T02:02:14.499Z,13.27
2022-12-31T02:04:42.103Z,13.90
2022-12-31T02:07:11.385Z,13.70
2022-12-31T02:09:41.141Z,13.77
2022-12-31T02:12:09.735Z,14.50
2022-12-31T02:14:42.267Z,13.25
2022-12-31T02:17:12.326Z,13.73
2022-12-31T02:19:58.223Z,13.68
2022-12-31T02:23:05.656Z,14.70
2022-12-31T02:25:50.989Z,14.32
2022-12-31T02:28:27.323Z,14.40
2022-12-31T02:31:01.995Z,14.77
2022-12-31T02:33:50.016Z,15.48
2022-12-31T02:36:26.419Z,15.00
2022-12-31T02:38:54.931Z,14.07
2022-12-31T02:41:40.871Z,13.98
2022-12-31T02:44:38.224Z,15.65
2022-12-31T02:47:08.388Z,14.80
2022-12-31T02:49:44.456Z,14.20
2022-12-31T02:52:20.655Z,14.95
2022-12-31T02:54:54.373Z,15.23
2022-12-31T02:57:51.002Z,14.93
2022-12-31T03:00:37.003Z,15.15
2022-12-31T03:03:07.993Z,14.70
2022-12-31T03:05:40.342Z,13.80
2022-12-31T03:08:08.078Z,14.18
2022-12-31T03:10:36.353Z,14.70
2022-12-31T03:13:03.981Z,14.23
2022-12-31T03:15:33.353Z,14.02
2022-12-31T03:18:06.286Z,14.95
2022-12-31T03:21:07.014Z,14.93
2022-12-31T03:23:51.919Z,14.40
2022-12-31T03:26:19.411Z,13.88
2022-12-31T03:28:47.859Z,15.75
2022-12-31T03:31:16.476Z,14.75
2022-12-31T03:33:43.860Z,14.35
2022-12-31T03:36:14.874Z,13.82
2022-12-31T03:38:42.172Z,14.63
2022-12-31T03:41:11.188Z,14.00
2022-12-31T03:43:38.579Z,13.98
2022-12-31T03:46:06.480Z,13.90
2022-12-31T03:48:33.885Z,15.13
2022-12-31T03:51:01.251Z,15.25
2022-12-31T03:53:28.502Z,14.00
2022-12-31T03:55:55.835Z,14.32
2022-12-31T03:58:23.328Z,14.65
2022-12-31T04:00:51.121Z,13.98
2022-12-31T04:03:18.626Z,14.02
2022-12-31T04:05:52.727Z,14.20
2022-12-31T04:08:19.933Z,13.43
2022-12-31T04:10:47.826Z,14.00
2022-12-31T04:13:15.066Z,13.75
2022-12-31T04:15:42.341Z,13.00
2022-12-31T04:18:09.695Z,13.82
2022-12-31T04:20:37.040Z,13.98
2022-12-31T04:23:04.569Z,13.75
2022-12-31T04:25:31.974Z,14.18
2022-12-31T04:27:59.349Z,13.85
2022-12-31T04:30:26.642Z,13.50
2022-12-31T04:32:53.820Z,12.98
2022-12-31T04:35:21.090Z,12.75
2022-12-31T04:37:48.341Z,13.55
2022-12-31T04:40:15.697Z,12.95
2022-12-31T04:42:42.985Z,12.45
2022-12-31T04:45:10.666Z,11.85
2022-12-31T04:47:37.927Z,12.98
2022-12-31T04:50:05.780Z,11.93
2022-12-31T04:52:37.158Z,11.70
2022-12-31T04:55:09.699Z,12.15
2022-12-31T04:57:36.959Z,13.15
2022-12-31T05:00:04.711Z,11.15
2022-12-31T05:02:32.033Z,12.50
2022-12-31T05:04:59.521Z,12.77
2022-12-31T05:07:26.824Z,12.02
2022-12-31T05:09:54.107Z,11.48
2022-12-31T05:12:21.396Z,12.38
2022-12-31T05:14:48.648Z,12.25
2022-12-31T05:17:15.917Z,11.02
2022-12-31T05:19:43.189Z,12.88
2022-12-31T05:22:28.933Z,12.02
2022-12-31T05:25:00.941Z,11.52
2022-12-31T05:27:31.279Z,12.23
2022-12-31T05:29:59.758Z,11.30
2022-12-31T05:32:27.266Z,10.82
2022-12-31T05:34:54.666Z,11.07
2022-12-31T05:37:21.912Z,11.80
2022-12-31T05:39:49.312Z,10.45
2022-12-31T05:42:16.689Z,11.05
2022-12-31T05:44:44.039Z,10.60
2022-12-31T05:47:11.340Z,11.07
2022-12-31T05:49:38.682Z,10.15
2022-12-31T05:52:06.793Z,11.27
2022-12-31T05:54:34.077Z,10.80
2022-12-31T05:57:01.337Z,11.27
2022-12-31T05:59:28.680Z,10.57
2022-12-31T06:01:55.976Z,10.25
2022-12-31T06:04:23.898Z,11.15
2022-12-31T06:06:51.233Z,10.43
2022-12-31T06:09:19.573Z,9.80
2022-12-31T06:11:47.410Z,11.45
2022-12-31T06:14:14.960Z,10.43
2022-12-31T06:16:43.275Z,10.02
2022-12-31T06:19:10.585Z,9.68
2022-12-31T06:21:37.936Z,10.40
2022-12-31T06:24:05.521Z,8.95
2022-12-31T06:26:32.816Z,10.30
2022-12-31T06:29:00.119Z,9.52
2022-12-31T06:31:27.400Z,9.23
2022-12-31T06:33:55.134Z,9.73
2022-12-31T06:36:22.502Z,9.20
2022-12-31T06:38:50.752Z,8.98
2022-12-31T06:41:18.752Z,10.10
2022-12-31T06:43:46.113Z,9.00
2022-12-31T06:46:16.143Z,8.73
2022-12-31T06:48:44.975Z,9.10
2022-12-31T06:51:18.167Z,8.93
2022-12-31T06:56:23.401Z,9.35
2022-12-31T06:58:54.245Z,8.32
2022-12-31T07:01:33.384Z,9.30
2022-12-31T07:04:19.251Z,8.63
2022-12-31T07:06:57.339Z,8.70
2022-12-31T07:09:43.045Z,8.43
2022-12-31T07:12:20.905Z,10.63
2022-12-31T07:15:26.663Z,11.10
2022-12-31T07:18:22.734Z,10.90
2022-12-31T07:20:50.292Z,10.93
2022-12-31T07:23:17.875Z,11.05
2022-12-31T07:25:56.170Z,11.02
2022-12-31T07:29:17.203Z,10.98
2022-12-31T07:32:01.144Z,9.77
2022-12-31T07:34:39.932Z,8.85
2022-12-31T07:37:36.036Z,8.50
2022-12-31T07:40:14.245Z,8.73
2022-12-31T07:43:14.010Z,9.27
2022-12-31T07:45:48.563Z,8.82
2022-12-31T07:48:25.254Z,8.85
2022-12-31T07:50:54.835Z,9.80
2022-12-31T07:53:25.685Z,7.88
2022-12-31T07:56:01.956Z,8.25
2022-12-31T07:58:50.223Z,8.73
2022-12-31T08:01:30.642Z,8.93
2022-12-31T08:04:24.274Z,8.43
2022-12-31T08:07:11.663Z,7.65
2022-12-31T08:09:47.866Z,7.88
2022-12-31T08:12:15.727Z,7.90
2022-12-31T08:14:46.272Z,7.75
2022-12-31T08:17:15.931Z,7.72
2022-12-31T08:19:43.528Z,8.35
2022-12-31T08:22:30.103Z,7.68
2022-12-31T08:25:34.797Z,8.30
2022-12-31T08:28:37.217Z,7.55
2022-12-31T08:31:10.788Z,8.25
2022-12-31T08:34:05.565Z,7.18
2022-12-31T08:36:45.303Z,7.60
2022-12-31T08:39:34.858Z,7.80
2022-12-31T08:42:05.111Z,7.30
2022-12-31T08:45:13.136Z,7.85
2022-12-31T08:47:59.519Z,6.80
2022-12-31T08:50:28.037Z,6.90
2022-12-31T08:52:55.886Z,7.28
2022-12-31T08:55:23.488Z,6.60
2022-12-31T08:58:18.125Z,6.93
2022-12-31T09:00:46.599Z,6.55
2022-12-31T09:03:45.039Z,7.07
2022-12-31T09:06:34.002Z,6.53
2022-12-31T09:09:10.271Z,7.20
2022-12-31T09:11:46.771Z,6.75
2022-12-31T09:14:35.604Z,6.70
2022-12-31T09:17:32.174Z,6.80
2022-12-31T09:19:59.679Z,6.28
2022-12-31T09:22:27.297Z,6.45
2022-12-31T09:24:54.852Z,6.18
2022-12-31T09:27:28.335Z,6.53
2022-12-31T09:30:16.313Z,6.65
2022-12-31T09:33:07.293Z,6.63
2022-12-31T09:35:56.795Z,6.35
2022-12-31T09:38:35.839Z,6.35
2022-12-31T09:41:32.222Z,6.15
2022-12-31T09:44:24.532Z,6.20
2022-12-31T09:47:19.416Z,6.28
2022-12-31T09:50:08.452Z,5.97
2022-12-31T09:52:56.004Z,6.40
2022-12-31T09:55:54.164Z,6.40
2022-12-31T09:58:52.290Z,6.65
2022-12-31T10:01:37.721Z,6.05
2022-12-31T10:04:23.499Z,6.03
2022-12-31T10:07:13.447Z,6.30
2022-12-31T10:09:59.054Z,6.32
2022-12-31T10:13:03.692Z,6.50
2022-12-31T10:16:15.543Z,5.68
2022-12-31T10:19:33.893Z,6.93
2022-12-31T10:22:16.187Z,5.95
2022-12-31T10:24:53.168Z,6.85
2022-12-31T10:27:39.686Z,6.25
2022-12-31T10:30:17.701Z,6.07
2022-12-31T10:32:54.289Z,6.72
2022-12-31T10:35:53.373Z,5.97
2022-12-31T10:38:39.279Z,6.75
2022-12-31T10:41:28.209Z,6.07
2022-12-31T10:44:07.235Z,6.13
2022-12-31T10:46:56.044Z,6.38
2022-12-31T10:50:12.267Z,6.60
2022-12-31T10:53:24.205Z,6.78
2022-12-31T10:56:15.803Z,6.68
2022-12-31T10:59:21.406Z,12.32
2022-12-31T11:02:15.794Z,13.45
2022-12-31T11:05:05.026Z,10.30
2022-12-31T11:07:35.363Z,9.07
2022-12-31T11:10:29.710Z,8.85
2022-12-31T11:13:34.826Z,9.27
2022-12-31T11:16:20.744Z,8.10
2022-12-31T11:18:57.245Z,13.52
2022-12-31T11:21:30.398Z,13.63
2022-12-31T11:24:18.479Z,9.50
2022-12-31T11:27:14.762Z,9.35
2022-12-31T11:30:04.591Z,7.70
2022-12-31T11:32:48.367Z,8.57
2022-12-31T11:35:18.526Z,8.27
2022-12-31T11:37:58.559Z,8.77
2022-12-31T11:40:28.759Z,7.72
2022-12-31T11:43:01.172Z,7.53
2022-12-31T11:45:57.905Z,7.13
2022-12-31T11:48:47.349Z,7.70
2022-12-31T11:51:51.042Z,7.68
2022-12-31T11:54:27.158Z,8.50
2022-12-31T11:57:23.183Z,7.53
2022-12-31T12:00:04.545Z,8.27
2022-12-31T12:02:45.558Z,8.27
2022-12-31T12:05:20.340Z,8.30
2022-12-31T12:07:49.183Z,6.97
2022-12-31T12:10:35.608Z,8.30
2022-12-31T12:13:28.592Z,7.00
2022-12-31T12:15:59.376Z,6.68
2022-12-31T12:18:50.867Z,6.70
2022-12-31T12:21:23.880Z,7.65
2022-12-31T12:26:29.814Z,7.63
2022-12-31T12:29:01.488Z,6.60
2022-12-31T12:31:28.856Z,6.97
2022-12-31T12:33:56.247Z,6.50
2022-12-31T12:36:23.569Z,6.50
2022-12-31T12:39:07.142Z,6.57
2022-12-31T12:41:34.567Z,7.32
2022-12-31T12:44:06.192Z,5.90
2022-12-31T12:46:39.486Z,5.72
2022-12-31T12:49:28.951Z,5.50
2022-12-31T12:52:27.218Z,5.75
2022-12-31T12:55:04.233Z,5.78
2022-12-31T12:57:58.625Z,5.78
2022-12-31T13:00:51.437Z,5.88
2022-12-31T13:03:21.872Z,5.78
2022-12-31T13:05:55.991Z,6.50
2022-12-31T13:08:35.117Z,6.07
2022-12-31T13:11:37.240Z,5.85
2022-12-31T13:14:28.990Z,5.90
2022-12-31T13:17:25.300Z,6.22
2022-12-31T13:19:55.508Z,6.50
2022-12-31T13:22:40.786Z,6.43
2022-12-31T13:25:34.410Z,6.00
2022-12-31T13:28:08.727Z,6.63
2022-12-31T13:30:49.498Z,6.57
2022-12-31T13:33:26.327Z,6.00
2022-12-31T13:36:08.943Z,6.40
2022-12-31T13:38:40.478Z,6.70
2022-12-31T13:41:34.380Z,6.35
2022-12-31T13:44:27.406Z,7.05
2022-12-31T13:47:13.769Z,6.93
2022-12-31T13:49:49.779Z,7.55
2022-12-31T13:52:41.566Z,8.35
2022-12-31T13:55:44.832Z,9.00
2022-12-31T13:58:53.164Z,7.40
2022-12-31T14:01:25.390Z,7.70
2022-12-31T14:04:04.671Z,7.78
2022-12-31T14:06:38.908Z,8.13
2022-12-31T14:09:06.777Z,8.32
2022-12-31T14:11:45.962Z,8.65
2022-12-31T14:14:31.599Z,8.30
2022-12-31T14:17:07.618Z,7.05
2022-12-31T14:19:56.131Z,11.98
2022-12-31T14:22:36.167Z,14.80
2022-12-31T14:25:14.399Z,13.07
2022-12-31T14:27:44.598Z,9.48
2022-12-31T14:30:22.062Z,10.30
2022-12-31T14:33:04.596Z,10.05
2022-12-31T14:35:34.933Z,9.18
2022-12-31T14:38:19.403Z,8.15
2022-12-31T14:41:26.659Z,8.63
2022-12-31T14:44:20.396Z,9.60
2022-12-31T14:47:00.631Z,8.07
2022-12-31T14:49:39.271Z,9.63
2022-12-31T14:52:09.518Z,9.88
2022-12-31T14:54:38.208Z,9.55
2022-12-31T14:57:18.168Z,7.78
2022-12-31T15:00:13.217Z,7.57
2022-12-31T15:02:53.582Z,7.22
2022-12-31T15:05:24.081Z,7.63
2022-12-31T15:08:25.229Z,9.27
2022-12-31T15:11:36.897Z,19.60
2022-12-31T15:14:25.561Z,31.45
2022-12-31T15:17:31.008Z,27.30
2022-12-31T15:20:32.614Z,23.58
2022-12-31T15:23:00.156Z,21.35
2022-12-31T15:25:33.881Z,21.70
2022-12-31T15:28:07.049Z,22.75
2022-12-31T15:30:45.209Z,21.45
2022-12-31T15:33:30.844Z,21.23
2022-12-31T15:36:10.641Z,21.08
2022-12-31T15:38:39.602Z,20.40
2022-12-31T15:41:42.939Z,21.10
2022-12-31T15:44:49.361Z,18.90
2022-12-31T15:47:19.556Z,19.50
2022-12-31T15:49:47.700Z,19.80
2022-12-31T15:52:25.567Z,19.55
2022-12-31T15:54:56.168Z,20.23
2022-12-31T15:57:37.752Z,19.48
2022-12-31T16:00:09.404Z,21.80
2022-12-31T16:02:43.072Z,23.73
2022-12-31T16:05:25.966Z,20.85
2022-12-31T16:07:58.516Z,22.38
2022-12-31T16:10:33.405Z,21.30
2022-12-31T16:13:00.999Z,21.48
2022-12-31T16:15:31.565Z,21.75
2022-12-31T16:18:09.903Z,23.23
2022-12-31T16:20:43.271Z,23.20
2022-12-31T16:23:23.585Z,23.90
2022-12-31T16:25:54.614Z,22.85
2022-12-31T16:28:30.640Z,22.33
2022-12-31T16:31:01.983Z,23.75
2022-12-31T16:33:31.203Z,23.88
2022-12-31T16:36:01.694Z,23.92
2022-12-31T16:38:34.854Z,24.95
2022-12-31T16:43:37.374Z,23.23
2022-12-31T16:46:27.604Z,24.25
2022-12-31T16:49:15.782Z,22.95
2022-12-31T16:51:44.743Z,24.88
2022-12-31T16:54:43.905Z,24.70
2022-12-31T16:57:21.481Z,24.27
2022-12-31T16:59:54.622Z,25.40
2022-12-31T17:02:38.818Z,24.70
2022-12-31T17:05:22.074Z,25.33
2022-12-31T17:07:49.665Z,24.63
2022-12-31T17:10:24.256Z,26.08
2022-12-31T17:13:28.305Z,25.58
2022-12-31T17:15:47.835Z,26.67
2022-12-31T17:18:24.183Z,26.63
2022-12-31T17:20:53.452Z,27.02
2022-12-31T17:23:28.294Z,25.58
2022-12-31T17:26:07.625Z,26.90
2022-12-31T17:28:46.986Z,27.00
2022-12-31T17:32:00.062Z,27.73
2022-12-31T17:34:33.958Z,27.90
2022-12-31T17:37:03.423Z,28.10
2022-12-31T17:39:44.483Z,27.75
2022-12-31T17:42:13.831Z,26.90
2022-12-31T17:44:43.745Z,27.88
2022-12-31T17:47:14.127Z,26.15
2022-12-31T17:49:44.998Z,27.13
2022-12-31T17:52:14.397Z,24.40
2022-12-31T17:54:42.438Z,25.90
2022-12-31T17:57:26.209Z,24.95
2022-12-31T17:59:54.089Z,24.70
2022-12-31T18:02:21.508Z,24.60
2022-12-31T18:04:48.780Z,25.10
2022-12-31T18:07:16.014Z,23.98
2022-12-31T18:09:43.194Z,24.38
2022-12-31T18:12:12.549Z,23.77
2022-12-31T18:14:41.030Z,22.25
2022-12-31T18:17:15.247Z,22.73
2022-12-31T18:22:30.376Z,22.17
2022-12-31T18:24:57.613Z,23.15
2022-12-31T18:27:25.021Z,23.00
2022-12-31T18:29:52.292Z,22.88
2022-12-31T18:32:28.370Z,22.25
2022-12-31T18:34:55.636Z,21.85
2022-12-31T18:37:23.095Z,21.80
2022-12-31T18:39:50.427Z,21.58
2022-12-31T18:42:19.205Z,22.85
2022-12-31T18:44:46.884Z,23.05
2022-12-31T18:47:16.862Z,21.75
2022-12-31T18:49:48.743Z,21.48
2022-12-31T18:52:18.500Z,21.27
2022-12-31T18:54:46.246Z,21.92
2022-12-31T18:57:15.478Z,23.70
2022-12-31T18:59:42.895Z,22.40
2022-12-31T19:02:18.006Z,22.27
2022-12-31T19:04:46.035Z,21.77
2022-12-31T19:07:13.425Z,21.58
2022-12-31T19:09:45.587Z,22.50
2022-12-31T19:12:14.621Z,21.45
2022-12-31T19:14:41.989Z,21.77
2022-12-31T19:19:35.493Z,22.58
2022-12-31T19:22:02.984Z,20.05
2022-12-31T19:24:30.556Z,19.88
2022-12-31T19:26:57.804Z,21.35
2022-12-31T19:29:27.206Z,21.27
2022-12-31T19:31:54.967Z,21.23
2022-12-31T19:34:22.296Z,20.38
2022-12-31T19:36:49.661Z,20.85
2022-12-31T19:39:20.240Z,20.67
2022-12-31T19:41:54.623Z,21.08
2022-12-31T19:44:23.683Z,20.88
2022-12-31T19:46:51.032Z,20.02
2022-12-31T19:49:18.367Z,20.90
2022-12-31T19:51:45.683Z,20.02
2022-12-31T19:54:13.507Z,20.20
2022-12-31T19:56:40.923Z,21.73
2022-12-31T19:59:10.281Z,20.77
2022-12-31T20:01:37.931Z,20.50
2022-12-31T20:04:05.614Z,20.60
2022-12-31T20:06:32.983Z,20.10
2022-12-31T20:09:00.252Z,21.35
2022-12-31T20:11:27.591Z,21.00
2022-12-31T20:13:54.913Z,20.05
2022-12-31T20:16:26.884Z,19.90
2022-12-31T20:18:54.669Z,21.77
2022-12-31T20:21:25.129Z,21.58
2022-12-31T20:23:54.023Z,21.35
2022-12-31T20:26:23.472Z,23.67
2022-12-31T20:28:52.111Z,22.42
2022-12-31T20:31:23.449Z,23.17
2022-12-31T20:33:51.276Z,23.25
2022-12-31T20:36:18.625Z,21.02
2022-12-31T20:38:46.524Z,22.90
2022-12-31T20:41:19.184Z,22.95
2022-12-31T20:43:46.877Z,22.33
2022-12-31T20:46:22.882Z,22.98
2022-12-31T20:48:52.265Z,21.83
2022-12-31T20:51:20.865Z,24.33
2022-12-31T20:53:59.690Z,22.05
2022-12-31T20:56:29.426Z,21.73
2022-12-31T20:58:57.298Z,21.70
2022-12-31T21:01:25.591Z,21.92
2022-12-31T21:04:09.647Z,22.30
2022-12-31T21:06:37.171Z,23.10
2022-12-31T21:09:07.431Z,22.02
2022-12-31T21:11:53.612Z,22.58
2022-12-31T21:14:21.568Z,22.10
2022-12-31T21:16:48.907Z,22.10
2022-12-31T21:19:16.233Z,21.83
2022-12-31T21:21:43.531Z,21.83
2022-12-31T21:24:11.231Z,19.85
2022-12-31T21:26:38.553Z,21.13
2022-12-31T21:29:06.023Z,21.20
2022-12-31T21:31:33.499Z,22.40
2022-12-31T21:34:00.940Z,22.38
2022-12-31T21:36:28.350Z,22.23
2022-12-31T21:38:55.838Z,22.08
2022-12-31T21:41:42.028Z,23.30
2022-12-31T21:44:09.625Z,23.73
2022-12-31T21:46:37.128Z,22.02
2022-12-31T21:49:04.519Z,23.17
2022-12-31T21:51:31.961Z,22.95
2022-12-31T21:53:59.366Z,22.38
2022-12-31T21:56:26.949Z,22.38
2022-12-31T21:59:15.141Z,22.13
2022-12-31T22:02:01.615Z,21.85
2022-12-31T22:05:01.375Z,22.38
2022-12-31T22:07:17.069Z,21.67
2022-12-31T22:09:44.425Z,22.85
2022-12-31T22:12:12.008Z,21.60
2022-12-31T22:14:39.450Z,22.85
2022-12-31T22:17:26.767Z,21.15
2022-12-31T22:20:25.321Z,22.15
2022-12-31T22:22:41.339Z,22.17
2022-12-31T22:25:09.144Z,21.83
2022-12-31T22:27:36.382Z,22.85
2022-12-31T22:30:04.535Z,21.80
2022-12-31T22:32:31.815Z,21.98
2022-12-31T22:34:59.133Z,23.90
2022-12-31T22:40:13.820Z,22.10
2022-12-31T22:42:41.475Z,21.77
2022-12-31T22:45:09.459Z,21.52
2022-12-31T22:47:36.769Z,22.20
2022-12-31T22:50:04.546Z,21.88
2022-12-31T22:52:31.906Z,22.02
2022-12-31T22:54:59.152Z,22.95
2022-12-31T22:57:26.501Z,23.23
2022-12-31T22:59:53.703Z,21.85
2022-12-31T23:02:21.037Z,23.17
2022-12-31T23:04:48.388Z,22.77
2022-12-31T23:07:15.696Z,23.50
2022-12-31T23:10:01.348Z,23.98
2022-12-31T23:12:28.975Z,22.45
2022-12-31T23:15:14.952Z,22.23
2022-12-31T23:18:00.944Z,24.42
2022-12-31T23:20:46.768Z,24.60
2022-12-31T23:23:16.196Z,24.98
2022-12-31T23:25:46.665Z,23.35
2022-12-31T23:28:16.768Z,24.50
2022-12-31T23:30:44.330Z,24.42
2022-12-31T23:33:17.611Z,25.15
2022-12-31T23:35:45.175Z,24.88
2022-12-31T23:38:13.399Z,24.73
2022-12-31T23:40:40.750Z,27.83
2022-12-31T23:43:10.227Z,30.40
2022-12-31T23:45:37.723Z,27.55
2022-12-31T23:48:05.218Z,29.40
2022-12-31T23:50:32.534Z,31.35
2022-12-31T23:52:59.912Z,31.13
2022-12-31T23:55:27.231Z,32.63
2022-12-31T23:57:55.173Z,29.77
